sensor_id;sensor_type;location;lat;lon;timestamp;P1;durP1;ratioP1;P2;durP2;ratioP2
18210;SDS011;9231;48.852;9.882;2023-05-07T00:01:31;5.63;;;2.60;;
18210;SDS011;9231;48.852;9.882;2023-05-07T00:03:57;6.73;;;3.17;;
18210;SDS011;9231;48.852;9.882;2023-05-07T00:06:24;4.80;;;2.83;;
18210;SDS011;9231;48.852;9.882;2023-05-07T00:08:53;7.20;;;2.70;;
18210;SDS011;9231;48.852;9.882;2023-05-07T00:11:19;3.80;;;2.50;;
18210;SDS011;9231;48.852;9.882;2023-05-07T00:13:46;4.73;;;2.30;;
18210;SDS011;9231;48.852;9.882;2023-05-07T00:16:12;5.03;;;2.70;;
18210;SDS011;9231;48.852;9.882;2023-05-07T00:18:42;3.07;;;2.30;;
18210;SDS011;9231;48.852;9.882;2023-05-07T00:21:08;3.50;;;2.70;;
18210;SDS011;9231;48.852;9.882;2023-05-07T00:23:35;4.40;;;2.67;;
18210;SDS011;9231;48.852;9.882;2023-05-07T00:26:03;4.83;;;2.73;;
18210;SDS011;9231;48.852;9.882;2023-05-07T00:28:29;4.83;;;2.93;;
18210;SDS011;9231;48.852;9.882;2023-05-07T00:30:56;2.93;;;2.63;;
18210;SDS011;9231;48.852;9.882;2023-05-07T00:33:22;5.03;;;2.90;;
18210;SDS011;9231;48.852;9.882;2023-05-07T00:35:49;6.97;;;2.70;;
18210;SDS011;9231;48.852;9.882;2023-05-07T00:38:15;4.30;;;3.00;;
18210;SDS011;9231;48.852;9.882;2023-05-07T00:40:42;4.03;;;2.83;;
18210;SDS011;9231;48.852;9.882;2023-05-07T00:43:10;3.97;;;2.73;;
18210;SDS011;9231;48.852;9.882;2023-05-07T00:45:37;4.30;;;2.50;;
18210;SDS011;9231;48.852;9.882;2023-05-07T00:48:04;4.13;;;2.50;;
18210;SDS011;9231;48.852;9.882;2023-05-07T00:50:31;4.07;;;3.23;;
18210;SDS011;9231;48.852;9.882;2023-05-07T00:52:58;7.00;;;2.40;;
18210;SDS011;9231;48.852;9.882;2023-05-07T00:55:25;6.53;;;2.87;;
18210;SDS011;9231;48.852;9.882;2023-05-07T00:57:52;3.17;;;2.60;;
18210;SDS011;9231;48.852;9.882;2023-05-07T01:00:19;5.67;;;2.67;;
18210;SDS011;9231;48.852;9.882;2023-05-07T01:02:49;4.83;;;2.70;;
18210;SDS011;9231;48.852;9.882;2023-05-07T01:05:17;4.13;;;2.67;;
18210;SDS011;9231;48.852;9.882;2023-05-07T01:07:43;4.93;;;2.60;;
18210;SDS011;9231;48.852;9.882;2023-05-07T01:10:10;2.20;;;2.00;;
18210;SDS011;9231;48.852;9.882;2023-05-07T01:12:38;4.07;;;2.50;;
18210;SDS011;9231;48.852;9.882;2023-05-07T01:15:05;3.70;;;2.50;;
18210;SDS011;9231;48.852;9.882;2023-05-07T01:17:35;2.53;;;2.00;;
18210;SDS011;9231;48.852;9.882;2023-05-07T01:20:01;3.37;;;2.60;;
18210;SDS011;9231;48.852;9.882;2023-05-07T01:22:38;3.90;;;2.70;;
18210;SDS011;9231;48.852;9.882;2023-05-07T01:25:05;5.57;;;2.77;;
18210;SDS011;9231;48.852;9.882;2023-05-07T01:27:32;3.37;;;2.67;;
18210;SDS011;9231;48.852;9.882;2023-05-07T01:30:00;3.63;;;2.30;;
18210;SDS011;9231;48.852;9.882;2023-05-07T01:32:27;4.83;;;2.60;;
18210;SDS011;9231;48.852;9.882;2023-05-07T01:34:55;3.70;;;2.33;;
18210;SDS011;9231;48.852;9.882;2023-05-07T01:37:22;5.33;;;2.53;;
18210;SDS011;9231;48.852;9.882;2023-05-07T01:39:50;4.53;;;2.30;;
18210;SDS011;9231;48.852;9.882;2023-05-07T01:42:16;3.53;;;3.00;;
18210;SDS011;9231;48.852;9.882;2023-05-07T01:44:43;5.27;;;3.17;;
18210;SDS011;9231;48.852;9.882;2023-05-07T01:47:09;7.20;;;3.10;;
18210;SDS011;9231;48.852;9.882;2023-05-07T01:49:36;4.40;;;2.70;;
18210;SDS011;9231;48.852;9.882;2023-05-07T01:52:03;5.00;;;2.67;;
18210;SDS011;9231;48.852;9.882;2023-05-07T01:54:29;3.30;;;2.50;;
18210;SDS011;9231;48.852;9.882;2023-05-07T01:56:57;3.93;;;2.70;;
18210;SDS011;9231;48.852;9.882;2023-05-07T01:59:24;4.33;;;2.80;;
18210;SDS011;9231;48.852;9.882;2023-05-07T02:01:50;3.10;;;2.70;;
18210;SDS011;9231;48.852;9.882;2023-05-07T02:04:17;8.43;;;3.30;;
18210;SDS011;9231;48.852;9.882;2023-05-07T02:06:43;4.83;;;2.53;;
18210;SDS011;9231;48.852;9.882;2023-05-07T02:09:10;4.30;;;2.70;;
18210;SDS011;9231;48.852;9.882;2023-05-07T02:11:36;5.10;;;2.73;;
18210;SDS011;9231;48.852;9.882;2023-05-07T02:14:04;4.50;;;2.50;;
18210;SDS011;9231;48.852;9.882;2023-05-07T02:16:31;7.63;;;3.47;;
18210;SDS011;9231;48.852;9.882;2023-05-07T02:18:57;7.13;;;3.30;;
18210;SDS011;9231;48.852;9.882;2023-05-07T02:21:24;3.20;;;2.53;;
18210;SDS011;9231;48.852;9.882;2023-05-07T02:23:51;3.60;;;2.50;;
18210;SDS011;9231;48.852;9.882;2023-05-07T02:26:17;4.20;;;2.50;;
18210;SDS011;9231;48.852;9.882;2023-05-07T02:28:44;4.53;;;2.70;;
18210;SDS011;9231;48.852;9.882;2023-05-07T02:31:12;3.10;;;2.80;;
18210;SDS011;9231;48.852;9.882;2023-05-07T02:33:38;9.57;;;2.53;;
18210;SDS011;9231;48.852;9.882;2023-05-07T02:36:05;6.57;;;3.00;;
18210;SDS011;9231;48.852;9.882;2023-05-07T02:38:32;4.23;;;2.77;;
18210;SDS011;9231;48.852;9.882;2023-05-07T02:41:01;3.50;;;2.73;;
18210;SDS011;9231;48.852;9.882;2023-05-07T02:43:27;7.97;;;2.90;;
18210;SDS011;9231;48.852;9.882;2023-05-07T02:46:03;2.97;;;2.67;;
18210;SDS011;9231;48.852;9.882;2023-05-07T02:48:31;3.53;;;2.50;;
18210;SDS011;9231;48.852;9.882;2023-05-07T02:50:58;3.43;;;2.50;;
18210;SDS011;9231;48.852;9.882;2023-05-07T02:53:25;3.23;;;2.37;;
18210;SDS011;9231;48.852;9.882;2023-05-07T02:55:52;6.03;;;2.90;;
18210;SDS011;9231;48.852;9.882;2023-05-07T02:58:18;3.77;;;2.67;;
18210;SDS011;9231;48.852;9.882;2023-05-07T03:00:45;5.37;;;2.87;;
18210;SDS011;9231;48.852;9.882;2023-05-07T03:03:11;4.53;;;2.80;;
18210;SDS011;9231;48.852;9.882;2023-05-07T03:05:39;5.13;;;2.60;;
18210;SDS011;9231;48.852;9.882;2023-05-07T03:08:05;2.80;;;2.50;;
18210;SDS011;9231;48.852;9.882;2023-05-07T03:10:32;5.20;;;2.40;;
18210;SDS011;9231;48.852;9.882;2023-05-07T03:12:58;4.13;;;2.57;;
18210;SDS011;9231;48.852;9.882;2023-05-07T03:15:25;2.63;;;2.43;;
18210;SDS011;9231;48.852;9.882;2023-05-07T03:17:51;8.10;;;2.70;;
18210;SDS011;9231;48.852;9.882;2023-05-07T03:20:18;4.63;;;2.60;;
18210;SDS011;9231;48.852;9.882;2023-05-07T03:22:46;3.10;;;2.30;;
18210;SDS011;9231;48.852;9.882;2023-05-07T03:25:12;3.50;;;2.07;;
18210;SDS011;9231;48.852;9.882;2023-05-07T03:27:39;3.60;;;2.40;;
18210;SDS011;9231;48.852;9.882;2023-05-07T03:30:07;3.63;;;2.43;;
18210;SDS011;9231;48.852;9.882;2023-05-07T03:32:33;5.67;;;2.53;;
18210;SDS011;9231;48.852;9.882;2023-05-07T03:35:00;4.17;;;2.53;;
18210;SDS011;9231;48.852;9.882;2023-05-07T03:37:29;2.73;;;2.27;;
18210;SDS011;9231;48.852;9.882;2023-05-07T03:39:57;4.83;;;2.37;;
18210;SDS011;9231;48.852;9.882;2023-05-07T03:42:23;2.83;;;2.30;;
18210;SDS011;9231;48.852;9.882;2023-05-07T03:44:50;4.80;;;2.40;;
18210;SDS011;9231;48.852;9.882;2023-05-07T03:47:19;5.20;;;2.50;;
18210;SDS011;9231;48.852;9.882;2023-05-07T03:49:46;4.70;;;2.00;;
18210;SDS011;9231;48.852;9.882;2023-05-07T03:52:13;6.93;;;2.63;;
18210;SDS011;9231;48.852;9.882;2023-05-07T03:54:39;2.23;;;2.00;;
18210;SDS011;9231;48.852;9.882;2023-05-07T03:57:07;2.47;;;2.00;;
18210;SDS011;9231;48.852;9.882;2023-05-07T03:59:34;5.37;;;2.57;;
18210;SDS011;9231;48.852;9.882;2023-05-07T04:02:00;4.03;;;2.33;;
18210;SDS011;9231;48.852;9.882;2023-05-07T04:04:27;4.37;;;2.40;;
18210;SDS011;9231;48.852;9.882;2023-05-07T04:06:57;5.30;;;2.30;;
18210;SDS011;9231;48.852;9.882;2023-05-07T04:09:24;2.83;;;2.20;;
18210;SDS011;9231;48.852;9.882;2023-05-07T04:11:53;3.90;;;2.40;;
18210;SDS011;9231;48.852;9.882;2023-05-07T04:14:21;5.33;;;2.93;;
18210;SDS011;9231;48.852;9.882;2023-05-07T04:16:47;4.13;;;2.33;;
18210;SDS011;9231;48.852;9.882;2023-05-07T04:19:13;4.10;;;3.07;;
18210;SDS011;9231;48.852;9.882;2023-05-07T04:21:40;4.93;;;2.80;;
18210;SDS011;9231;48.852;9.882;2023-05-07T04:24:07;3.23;;;2.53;;
18210;SDS011;9231;48.852;9.882;2023-05-07T04:26:33;3.30;;;2.40;;
18210;SDS011;9231;48.852;9.882;2023-05-07T04:28:59;2.80;;;2.50;;
18210;SDS011;9231;48.852;9.882;2023-05-07T04:31:27;5.63;;;2.87;;
18210;SDS011;9231;48.852;9.882;2023-05-07T04:33:54;3.73;;;2.50;;
18210;SDS011;9231;48.852;9.882;2023-05-07T04:36:20;6.00;;;2.80;;
18210;SDS011;9231;48.852;9.882;2023-05-07T04:38:47;3.77;;;2.30;;
18210;SDS011;9231;48.852;9.882;2023-05-07T04:41:13;4.77;;;2.90;;
18210;SDS011;9231;48.852;9.882;2023-05-07T04:43:40;3.87;;;3.10;;
18210;SDS011;9231;48.852;9.882;2023-05-07T04:46:06;5.13;;;2.90;;
18210;SDS011;9231;48.852;9.882;2023-05-07T04:48:37;4.17;;;2.70;;
18210;SDS011;9231;48.852;9.882;2023-05-07T04:51:03;5.40;;;2.70;;
18210;SDS011;9231;48.852;9.882;2023-05-07T04:53:30;5.60;;;2.70;;
18210;SDS011;9231;48.852;9.882;2023-05-07T04:55:56;3.20;;;2.40;;
18210;SDS011;9231;48.852;9.882;2023-05-07T04:58:23;4.63;;;2.20;;
18210;SDS011;9231;48.852;9.882;2023-05-07T05:00:49;4.53;;;2.60;;
18210;SDS011;9231;48.852;9.882;2023-05-07T05:03:16;5.93;;;3.13;;
18210;SDS011;9231;48.852;9.882;2023-05-07T05:05:44;2.80;;;2.30;;
18210;SDS011;9231;48.852;9.882;2023-05-07T05:08:10;4.47;;;2.60;;
18210;SDS011;9231;48.852;9.882;2023-05-07T05:10:36;2.73;;;2.43;;
18210;SDS011;9231;48.852;9.882;2023-05-07T05:13:03;3.43;;;2.77;;
18210;SDS011;9231;48.852;9.882;2023-05-07T05:15:38;6.33;;;2.77;;
18210;SDS011;9231;48.852;9.882;2023-05-07T05:18:04;4.90;;;3.03;;
18210;SDS011;9231;48.852;9.882;2023-05-07T05:20:31;5.53;;;2.77;;
18210;SDS011;9231;48.852;9.882;2023-05-07T05:22:59;4.47;;;3.00;;
18210;SDS011;9231;48.852;9.882;2023-05-07T05:25:26;4.60;;;3.77;;
18210;SDS011;9231;48.852;9.882;2023-05-07T05:27:55;5.03;;;3.17;;
18210;SDS011;9231;48.852;9.882;2023-05-07T05:30:23;5.10;;;3.80;;
18210;SDS011;9231;48.852;9.882;2023-05-07T05:32:50;5.43;;;3.50;;
18210;SDS011;9231;48.852;9.882;2023-05-07T05:35:16;3.63;;;3.33;;
18210;SDS011;9231;48.852;9.882;2023-05-07T05:37:45;5.97;;;3.10;;
18210;SDS011;9231;48.852;9.882;2023-05-07T05:40:14;3.97;;;2.83;;
18210;SDS011;9231;48.852;9.882;2023-05-07T05:42:41;5.53;;;3.43;;
18210;SDS011;9231;48.852;9.882;2023-05-07T05:45:08;6.03;;;3.50;;
18210;SDS011;9231;48.852;9.882;2023-05-07T05:47:34;4.20;;;3.40;;
18210;SDS011;9231;48.852;9.882;2023-05-07T05:50:02;3.40;;;3.00;;
18210;SDS011;9231;48.852;9.882;2023-05-07T05:52:30;3.70;;;3.17;;
18210;SDS011;9231;48.852;9.882;2023-05-07T05:54:56;6.23;;;3.03;;
18210;SDS011;9231;48.852;9.882;2023-05-07T05:57:24;5.63;;;3.00;;
18210;SDS011;9231;48.852;9.882;2023-05-07T05:59:50;6.27;;;3.30;;
18210;SDS011;9231;48.852;9.882;2023-05-07T06:02:17;3.63;;;2.83;;
18210;SDS011;9231;48.852;9.882;2023-05-07T06:04:43;3.13;;;2.47;;
18210;SDS011;9231;48.852;9.882;2023-05-07T06:07:10;4.27;;;3.20;;
18210;SDS011;9231;48.852;9.882;2023-05-07T06:09:36;5.03;;;3.57;;
18210;SDS011;9231;48.852;9.882;2023-05-07T06:12:03;4.43;;;3.07;;
18210;SDS011;9231;48.852;9.882;2023-05-07T06:14:30;4.83;;;2.90;;
18210;SDS011;9231;48.852;9.882;2023-05-07T06:16:57;3.47;;;2.60;;
18210;SDS011;9231;48.852;9.882;2023-05-07T06:19:23;3.53;;;2.67;;
18210;SDS011;9231;48.852;9.882;2023-05-07T06:21:51;4.70;;;3.17;;
18210;SDS011;9231;48.852;9.882;2023-05-07T06:24:18;7.70;;;2.97;;
18210;SDS011;9231;48.852;9.882;2023-05-07T06:26:44;7.23;;;2.80;;
18210;SDS011;9231;48.852;9.882;2023-05-07T06:29:10;4.30;;;2.60;;
18210;SDS011;9231;48.852;9.882;2023-05-07T06:31:38;4.50;;;2.73;;
18210;SDS011;9231;48.852;9.882;2023-05-07T06:34:05;3.33;;;2.80;;
18210;SDS011;9231;48.852;9.882;2023-05-07T06:36:31;2.73;;;2.43;;
18210;SDS011;9231;48.852;9.882;2023-05-07T06:38:58;3.80;;;2.60;;
18210;SDS011;9231;48.852;9.882;2023-05-07T06:41:25;3.60;;;2.60;;
18210;SDS011;9231;48.852;9.882;2023-05-07T06:43:52;4.17;;;2.90;;
18210;SDS011;9231;48.852;9.882;2023-05-07T06:46:18;2.80;;;2.43;;
18210;SDS011;9231;48.852;9.882;2023-05-07T06:48:46;3.60;;;2.60;;
18210;SDS011;9231;48.852;9.882;2023-05-07T06:51:12;3.43;;;2.20;;
18210;SDS011;9231;48.852;9.882;2023-05-07T06:53:39;2.70;;;2.50;;
18210;SDS011;9231;48.852;9.882;2023-05-07T06:56:05;4.23;;;3.17;;
18210;SDS011;9231;48.852;9.882;2023-05-07T06:58:32;3.33;;;2.20;;
18210;SDS011;9231;48.852;9.882;2023-05-07T07:01:03;3.20;;;2.30;;
18210;SDS011;9231;48.852;9.882;2023-05-07T07:03:38;3.40;;;2.45;;
18210;SDS011;9231;48.852;9.882;2023-05-07T07:06:07;3.33;;;2.30;;
18210;SDS011;9231;48.852;9.882;2023-05-07T07:08:34;2.30;;;2.07;;
18210;SDS011;9231;48.852;9.882;2023-05-07T07:11:02;2.80;;;2.20;;
18210;SDS011;9231;48.852;9.882;2023-05-07T07:13:29;2.30;;;2.10;;
18210;SDS011;9231;48.852;9.882;2023-05-07T07:15:56;3.13;;;2.40;;
18210;SDS011;9231;48.852;9.882;2023-05-07T07:18:22;2.50;;;2.30;;
18210;SDS011;9231;48.852;9.882;2023-05-07T07:20:48;2.43;;;2.17;;
18210;SDS011;9231;48.852;9.882;2023-05-07T07:23:16;3.97;;;2.37;;
18210;SDS011;9231;48.852;9.882;2023-05-07T07:29:51;2.63;;;1.90;;
18210;SDS011;9231;48.852;9.882;2023-05-07T07:34:31;2.30;;;1.60;;
18210;SDS011;9231;48.852;9.882;2023-05-07T07:39:58;3.17;;;1.40;;
18210;SDS011;9231;48.852;9.882;2023-05-07T07:42:24;2.13;;;1.80;;
18210;SDS011;9231;48.852;9.882;2023-05-07T07:44:54;1.83;;;1.67;;
18210;SDS011;9231;48.852;9.882;2023-05-07T07:47:22;1.90;;;1.23;;
18210;SDS011;9231;48.852;9.882;2023-05-07T07:49:49;2.10;;;1.40;;
18210;SDS011;9231;48.852;9.882;2023-05-07T07:52:15;1.30;;;1.20;;
18210;SDS011;9231;48.852;9.882;2023-05-07T07:54:42;2.20;;;1.30;;
18210;SDS011;9231;48.852;9.882;2023-05-07T08:05:20;2.53;;;1.10;;
18210;SDS011;9231;48.852;9.882;2023-05-07T08:07:50;1.47;;;0.93;;
18210;SDS011;9231;48.852;9.882;2023-05-07T08:10:21;1.67;;;1.10;;
18210;SDS011;9231;48.852;9.882;2023-05-07T08:12:49;1.50;;;0.90;;
18210;SDS011;9231;48.852;9.882;2023-05-07T08:15:29;2.50;;;1.10;;
18210;SDS011;9231;48.852;9.882;2023-05-07T08:18:01;3.10;;;1.13;;
18210;SDS011;9231;48.852;9.882;2023-05-07T08:20:29;1.50;;;0.90;;
18210;SDS011;9231;48.852;9.882;2023-05-07T08:23:10;2.10;;;1.10;;
18210;SDS011;9231;48.852;9.882;2023-05-07T08:25:39;2.63;;;1.23;;
18210;SDS011;9231;48.852;9.882;2023-05-07T08:28:10;2.00;;;1.10;;
18210;SDS011;9231;48.852;9.882;2023-05-07T08:30:44;1.25;;;1.08;;
18210;SDS011;9231;48.852;9.882;2023-05-07T08:33:11;1.60;;;1.20;;
18210;SDS011;9231;48.852;9.882;2023-05-07T08:35:39;3.53;;;1.40;;
18210;SDS011;9231;48.852;9.882;2023-05-07T08:38:05;2.47;;;1.37;;
18210;SDS011;9231;48.852;9.882;2023-05-07T08:40:33;3.20;;;1.30;;
18210;SDS011;9231;48.852;9.882;2023-05-07T08:43:04;2.85;;;1.17;;
18210;SDS011;9231;48.852;9.882;2023-05-07T08:45:31;2.15;;;1.33;;
18210;SDS011;9231;48.852;9.882;2023-05-07T08:48:05;2.75;;;1.20;;
18210;SDS011;9231;48.852;9.882;2023-05-07T08:50:35;1.02;;;0.80;;
18210;SDS011;9231;48.852;9.882;2023-05-07T08:53:12;1.92;;;1.20;;
18210;SDS011;9231;48.852;9.882;2023-05-07T08:55:45;1.88;;;0.90;;
18210;SDS011;9231;48.852;9.882;2023-05-07T08:58:22;2.25;;;1.15;;
18210;SDS011;9231;48.852;9.882;2023-05-07T09:00:57;1.77;;;0.82;;
18210;SDS011;9231;48.852;9.882;2023-05-07T09:03:27;2.05;;;1.00;;
18210;SDS011;9231;48.852;9.882;2023-05-07T09:05:56;1.85;;;0.80;;
18210;SDS011;9231;48.852;9.882;2023-05-07T09:08:30;2.45;;;0.98;;
18210;SDS011;9231;48.852;9.882;2023-05-07T09:11:12;1.40;;;1.00;;
18210;SDS011;9231;48.852;9.882;2023-05-07T09:13:39;4.45;;;0.98;;
18210;SDS011;9231;48.852;9.882;2023-05-07T09:16:11;2.70;;;1.00;;
18210;SDS011;9231;48.852;9.882;2023-05-07T09:18:40;3.10;;;1.00;;
18210;SDS011;9231;48.852;9.882;2023-05-07T09:33:26;1.33;;;0.90;;
18210;SDS011;9231;48.852;9.882;2023-05-07T09:36:31;1.33;;;0.90;;
18210;SDS011;9231;48.852;9.882;2023-05-07T09:39:02;2.13;;;1.10;;
18210;SDS011;9231;48.852;9.882;2023-05-07T09:45:56;1.10;;;0.77;;
18210;SDS011;9231;48.852;9.882;2023-05-07T09:47:55;0.70;;;0.50;;
18210;SDS011;9231;48.852;9.882;2023-05-07T09:50:28;1.08;;;0.75;;
18210;SDS011;9231;48.852;9.882;2023-05-07T09:53:12;1.05;;;0.60;;
18210;SDS011;9231;48.852;9.882;2023-05-07T09:58:51;0.90;;;0.70;;
18210;SDS011;9231;48.852;9.882;2023-05-07T10:01:38;1.00;;;0.70;;
18210;SDS011;9231;48.852;9.882;2023-05-07T10:04:15;1.83;;;0.90;;
18210;SDS011;9231;48.852;9.882;2023-05-07T10:10:19;1.27;;;0.90;;
18210;SDS011;9231;48.852;9.882;2023-05-07T10:12:46;1.85;;;0.90;;
18210;SDS011;9231;48.852;9.882;2023-05-07T10:18:30;1.60;;;0.90;;
18210;SDS011;9231;48.852;9.882;2023-05-07T10:21:02;3.13;;;0.88;;
18210;SDS011;9231;48.852;9.882;2023-05-07T10:24:16;2.38;;;0.63;;
18210;SDS011;9231;48.852;9.882;2023-05-07T10:29:58;2.35;;;0.80;;
18210;SDS011;9231;48.852;9.882;2023-05-07T10:32:39;0.88;;;0.65;;
18210;SDS011;9231;48.852;9.882;2023-05-07T10:38:16;5.25;;;0.80;;
18210;SDS011;9231;48.852;9.882;2023-05-07T10:40:50;2.58;;;0.90;;
18210;SDS011;9231;48.852;9.882;2023-05-07T10:43:43;1.77;;;0.80;;
18210;SDS011;9231;48.852;9.882;2023-05-07T10:46:41;2.65;;;0.82;;
18210;SDS011;9231;48.852;9.882;2023-05-07T10:52:19;2.33;;;0.80;;
18210;SDS011;9231;48.852;9.882;2023-05-07T11:09:56;1.10;;;0.80;;
18210;SDS011;9231;48.852;9.882;2023-05-07T11:15:41;1.17;;;1.08;;
18210;SDS011;9231;48.852;9.882;2023-05-07T11:21:14;2.65;;;0.70;;
18210;SDS011;9231;48.852;9.882;2023-05-07T11:24:20;0.88;;;0.77;;
18210;SDS011;9231;48.852;9.882;2023-05-07T11:26:51;1.33;;;0.88;;
18210;SDS011;9231;48.852;9.882;2023-05-07T11:29:48;2.42;;;1.10;;
18210;SDS011;9231;48.852;9.882;2023-05-07T11:35:28;6.68;;;1.30;;
18210;SDS011;9231;48.852;9.882;2023-05-07T11:43:54;1.98;;;0.90;;
18210;SDS011;9231;48.852;9.882;2023-05-07T11:46:22;1.83;;;1.00;;
18210;SDS011;9231;48.852;9.882;2023-05-07T11:48:48;2.05;;;1.00;;
18210;SDS011;9231;48.852;9.882;2023-05-07T11:51:18;0.90;;;0.90;;
18210;SDS011;9231;48.852;9.882;2023-05-07T11:53:44;2.90;;;1.00;;
18210;SDS011;9231;48.852;9.882;2023-05-07T11:56:11;1.40;;;0.80;;
18210;SDS011;9231;48.852;9.882;2023-05-07T11:58:39;1.23;;;0.90;;
18210;SDS011;9231;48.852;9.882;2023-05-07T12:01:07;1.13;;;0.80;;
18210;SDS011;9231;48.852;9.882;2023-05-07T12:03:34;1.42;;;0.90;;
18210;SDS011;9231;48.852;9.882;2023-05-07T12:06:01;1.02;;;0.88;;
18210;SDS011;9231;48.852;9.882;2023-05-07T12:08:27;1.00;;;0.90;;
18210;SDS011;9231;48.852;9.882;2023-05-07T12:10:54;1.45;;;0.80;;
18210;SDS011;9231;48.852;9.882;2023-05-07T12:13:21;1.05;;;0.90;;
18210;SDS011;9231;48.852;9.882;2023-05-07T12:15:50;0.93;;;0.70;;
18210;SDS011;9231;48.852;9.882;2023-05-07T12:18:18;1.60;;;0.90;;
18210;SDS011;9231;48.852;9.882;2023-05-07T12:20:45;1.55;;;0.80;;
18210;SDS011;9231;48.852;9.882;2023-05-07T12:23:11;1.25;;;0.85;;
18210;SDS011;9231;48.852;9.882;2023-05-07T12:25:38;3.00;;;1.13;;
18210;SDS011;9231;48.852;9.882;2023-05-07T12:28:05;1.73;;;0.90;;
18210;SDS011;9231;48.852;9.882;2023-05-07T12:30:32;2.28;;;1.00;;
18210;SDS011;9231;48.852;9.882;2023-05-07T12:32:58;2.13;;;0.70;;
18210;SDS011;9231;48.852;9.882;2023-05-07T12:35:30;1.35;;;0.90;;
18210;SDS011;9231;48.852;9.882;2023-05-07T12:37:56;1.52;;;0.80;;
18210;SDS011;9231;48.852;9.882;2023-05-07T12:40:25;1.30;;;0.82;;
18210;SDS011;9231;48.852;9.882;2023-05-07T12:42:52;1.48;;;0.85;;
18210;SDS011;9231;48.852;9.882;2023-05-07T12:45:19;1.98;;;0.82;;
18210;SDS011;9231;48.852;9.882;2023-05-07T12:47:45;1.17;;;0.85;;
18210;SDS011;9231;48.852;9.882;2023-05-07T12:50:12;2.78;;;1.10;;
18210;SDS011;9231;48.852;9.882;2023-05-07T12:52:40;1.42;;;0.80;;
18210;SDS011;9231;48.852;9.882;2023-05-07T12:55:07;1.55;;;0.77;;
18210;SDS011;9231;48.852;9.882;2023-05-07T12:57:37;2.58;;;0.77;;
18210;SDS011;9231;48.852;9.882;2023-05-07T13:00:04;2.25;;;0.82;;
18210;SDS011;9231;48.852;9.882;2023-05-07T13:02:32;2.28;;;0.80;;
18210;SDS011;9231;48.852;9.882;2023-05-07T13:04:58;3.53;;;0.95;;
18210;SDS011;9231;48.852;9.882;2023-05-07T13:07:25;3.03;;;0.90;;
18210;SDS011;9231;48.852;9.882;2023-05-07T13:09:52;0.70;;;0.60;;
18210;SDS011;9231;48.852;9.882;2023-05-07T13:12:19;2.95;;;0.80;;
18210;SDS011;9231;48.852;9.882;2023-05-07T13:14:45;2.20;;;0.90;;
18210;SDS011;9231;48.852;9.882;2023-05-07T13:17:12;2.15;;;0.70;;
18210;SDS011;9231;48.852;9.882;2023-05-07T13:19:38;1.00;;;0.68;;
18210;SDS011;9231;48.852;9.882;2023-05-07T13:22:05;0.85;;;0.75;;
18210;SDS011;9231;48.852;9.882;2023-05-07T13:24:31;1.90;;;0.90;;
18210;SDS011;9231;48.852;9.882;2023-05-07T13:26:59;1.45;;;0.90;;
18210;SDS011;9231;48.852;9.882;2023-05-07T13:29:25;0.75;;;0.68;;
18210;SDS011;9231;48.852;9.882;2023-05-07T13:32:04;1.42;;;0.82;;
18210;SDS011;9231;48.852;9.882;2023-05-07T13:34:30;1.45;;;0.80;;
18210;SDS011;9231;48.852;9.882;2023-05-07T13:36:57;1.77;;;0.98;;
18210;SDS011;9231;48.852;9.882;2023-05-07T13:39:23;1.30;;;0.80;;
18210;SDS011;9231;48.852;9.882;2023-05-07T13:41:50;2.45;;;0.88;;
18210;SDS011;9231;48.852;9.882;2023-05-07T13:44:17;2.83;;;1.00;;
18210;SDS011;9231;48.852;9.882;2023-05-07T13:46:44;1.77;;;0.93;;
18210;SDS011;9231;48.852;9.882;2023-05-07T13:49:10;0.98;;;0.82;;
18210;SDS011;9231;48.852;9.882;2023-05-07T13:51:37;1.45;;;0.85;;
18210;SDS011;9231;48.852;9.882;2023-05-07T13:54:04;2.15;;;0.70;;
18210;SDS011;9231;48.852;9.882;2023-05-07T13:56:32;2.45;;;1.10;;
18210;SDS011;9231;48.852;9.882;2023-05-07T13:59:03;2.25;;;1.23;;
18210;SDS011;9231;48.852;9.882;2023-05-07T14:01:31;1.00;;;0.90;;
18210;SDS011;9231;48.852;9.882;2023-05-07T14:03:57;1.90;;;0.95;;
18210;SDS011;9231;48.852;9.882;2023-05-07T14:06:24;0.90;;;0.80;;
18210;SDS011;9231;48.852;9.882;2023-05-07T14:08:51;1.63;;;0.80;;
18210;SDS011;9231;48.852;9.882;2023-05-07T14:11:17;2.17;;;0.88;;
18210;SDS011;9231;48.852;9.882;2023-05-07T14:13:44;2.88;;;1.02;;
18210;SDS011;9231;48.852;9.882;2023-05-07T14:16:10;3.10;;;1.00;;
18210;SDS011;9231;48.852;9.882;2023-05-07T14:18:38;1.75;;;1.02;;
18210;SDS011;9231;48.852;9.882;2023-05-07T14:21:04;2.58;;;1.00;;
18210;SDS011;9231;48.852;9.882;2023-05-07T14:23:32;3.38;;;1.25;;
18210;SDS011;9231;48.852;9.882;2023-05-07T14:26:01;2.15;;;0.98;;
18210;SDS011;9231;48.852;9.882;2023-05-07T14:28:27;1.80;;;1.02;;
18210;SDS011;9231;48.852;9.882;2023-05-07T14:30:53;1.80;;;1.08;;
18210;SDS011;9231;48.852;9.882;2023-05-07T14:33:20;2.13;;;1.20;;
18210;SDS011;9231;48.852;9.882;2023-05-07T14:35:48;3.20;;;1.23;;
18210;SDS011;9231;48.852;9.882;2023-05-07T14:38:15;4.70;;;1.10;;
18210;SDS011;9231;48.852;9.882;2023-05-07T14:40:41;1.35;;;0.90;;
18210;SDS011;9231;48.852;9.882;2023-05-07T14:43:10;2.58;;;1.00;;
18210;SDS011;9231;48.852;9.882;2023-05-07T14:45:36;1.92;;;1.02;;
18210;SDS011;9231;48.852;9.882;2023-05-07T14:48:03;1.02;;;0.75;;
18210;SDS011;9231;48.852;9.882;2023-05-07T14:50:30;3.08;;;1.27;;
18210;SDS011;9231;48.852;9.882;2023-05-07T14:52:58;3.85;;;1.05;;
18210;SDS011;9231;48.852;9.882;2023-05-07T14:55:24;2.28;;;1.10;;
18210;SDS011;9231;48.852;9.882;2023-05-07T14:57:51;2.40;;;1.00;;
18210;SDS011;9231;48.852;9.882;2023-05-07T15:00:17;2.38;;;1.50;;
18210;SDS011;9231;48.852;9.882;2023-05-07T15:02:44;1.90;;;0.85;;
18210;SDS011;9231;48.852;9.882;2023-05-07T15:05:10;1.35;;;1.20;;
18210;SDS011;9231;48.852;9.882;2023-05-07T15:07:37;1.65;;;1.20;;
18210;SDS011;9231;48.852;9.882;2023-05-07T15:10:05;1.40;;;1.00;;
18210;SDS011;9231;48.852;9.882;2023-05-07T15:12:31;1.30;;;1.20;;
18210;SDS011;9231;48.852;9.882;2023-05-07T15:14:58;3.75;;;1.05;;
18210;SDS011;9231;48.852;9.882;2023-05-07T15:17:24;3.10;;;1.40;;
18210;SDS011;9231;48.852;9.882;2023-05-07T15:19:51;3.25;;;1.30;;
18210;SDS011;9231;48.852;9.882;2023-05-07T15:22:18;2.67;;;1.38;;
18210;SDS011;9231;48.852;9.882;2023-05-07T15:24:46;2.42;;;1.20;;
18210;SDS011;9231;48.852;9.882;2023-05-07T15:27:14;2.25;;;0.98;;
18210;SDS011;9231;48.852;9.882;2023-05-07T15:29:43;3.10;;;1.00;;
18210;SDS011;9231;48.852;9.882;2023-05-07T15:32:10;1.83;;;1.02;;
18210;SDS011;9231;48.852;9.882;2023-05-07T15:34:38;2.55;;;1.40;;
18210;SDS011;9231;48.852;9.882;2023-05-07T15:37:06;2.60;;;1.40;;
18210;SDS011;9231;48.852;9.882;2023-05-07T15:39:32;3.07;;;1.67;;
18210;SDS011;9231;48.852;9.882;2023-05-07T15:41:59;1.77;;;1.10;;
18210;SDS011;9231;48.852;9.882;2023-05-07T15:44:27;2.83;;;1.33;;
18210;SDS011;9231;48.852;9.882;2023-05-07T15:46:55;3.40;;;1.30;;
18210;SDS011;9231;48.852;9.882;2023-05-07T15:49:22;1.53;;;1.20;;
18210;SDS011;9231;48.852;9.882;2023-05-07T15:51:48;2.30;;;1.20;;
18210;SDS011;9231;48.852;9.882;2023-05-07T15:54:15;2.27;;;1.40;;
18210;SDS011;9231;48.852;9.882;2023-05-07T15:56:47;1.43;;;1.13;;
18210;SDS011;9231;48.852;9.882;2023-05-07T15:59:15;2.50;;;1.30;;
18210;SDS011;9231;48.852;9.882;2023-05-07T16:01:43;1.67;;;1.03;;
18210;SDS011;9231;48.852;9.882;2023-05-07T16:04:10;2.47;;;1.13;;
18210;SDS011;9231;48.852;9.882;2023-05-07T16:06:36;2.90;;;1.20;;
18210;SDS011;9231;48.852;9.882;2023-05-07T16:09:03;3.27;;;1.40;;
18210;SDS011;9231;48.852;9.882;2023-05-07T16:11:29;2.67;;;1.20;;
18210;SDS011;9231;48.852;9.882;2023-05-07T16:13:57;1.97;;;1.00;;
18210;SDS011;9231;48.852;9.882;2023-05-07T16:16:25;3.57;;;1.37;;
18210;SDS011;9231;48.852;9.882;2023-05-07T16:18:55;1.80;;;1.30;;
18210;SDS011;9231;48.852;9.882;2023-05-07T16:21:21;1.80;;;1.07;;
18210;SDS011;9231;48.852;9.882;2023-05-07T16:23:49;5.00;;;1.10;;
18210;SDS011;9231;48.852;9.882;2023-05-07T16:26:16;2.17;;;1.20;;
18210;SDS011;9231;48.852;9.882;2023-05-07T16:28:42;4.43;;;1.40;;
18210;SDS011;9231;48.852;9.882;2023-05-07T16:31:09;3.43;;;1.30;;